createdAt,value
2019-02-20T00:00:54.315Z,8.23
2019-02-20T00:03:28.016Z,8.70
2019-02-20T00:05:57.099Z,14.43
2019-02-20T00:08:25.970Z,10.67
2019-02-20T00:10:54.912Z,10.57
2019-02-20T00:13:23.984Z,8.53
2019-02-20T00:15:52.859Z,8.70
2019-02-20T00:18:21.686Z,9.97
2019-02-20T00:20:50.702Z,8.13
2019-02-20T00:23:19.689Z,9.67
2019-02-20T00:25:48.674Z,11.97
2019-02-20T00:28:17.536Z,12.43
2019-02-20T00:30:46.509Z,9.77
2019-02-20T00:33:15.380Z,12.93
2019-02-20T00:35:44.341Z,15.90
2019-02-20T00:38:13.286Z,13.53
2019-02-20T00:40:42.137Z,9.13
2019-02-20T00:43:11.143Z,10.27
2019-02-20T00:46:08.347Z,12.23
2019-02-20T00:48:56.279Z,8.57
2019-02-20T00:51:44.238Z,11.47
2019-02-20T00:54:13.094Z,13.73
2019-02-20T00:56:41.971Z,11.63
2019-02-20T00:59:11.034Z,10.27
2019-02-20T01:01:39.953Z,10.50
2019-02-20T01:04:08.818Z,13.73
2019-02-20T01:06:37.831Z,10.13
2019-02-20T01:09:07.828Z,8.80
2019-02-20T01:11:36.763Z,13.43
2019-02-20T01:14:05.704Z,14.57
2019-02-20T01:16:34.583Z,14.07
2019-02-20T01:19:03.492Z,8.10
2019-02-20T01:21:32.502Z,12.03
2019-02-20T01:24:01.379Z,10.97
2019-02-20T01:26:30.486Z,12.57
2019-02-20T01:28:59.413Z,9.87
2019-02-20T01:31:28.378Z,13.00
2019-02-20T01:33:57.276Z,10.43
2019-02-20T01:36:26.206Z,13.60
2019-02-20T01:38:55.155Z,12.23
2019-02-20T01:41:24.075Z,10.60
2019-02-20T01:43:52.976Z,12.20
2019-02-20T01:46:21.848Z,16.80
2019-02-20T01:48:50.822Z,12.83
2019-02-20T01:51:19.667Z,12.57
2019-02-20T01:53:48.607Z,12.10
2019-02-20T01:56:17.495Z,12.80
2019-02-20T01:58:46.504Z,12.37
2019-02-20T02:01:15.356Z,11.67
2019-02-20T02:03:44.399Z,13.40
2019-02-20T02:06:13.358Z,12.30
2019-02-20T02:08:42.283Z,15.93
2019-02-20T02:11:11.257Z,11.90
2019-02-20T02:13:40.273Z,14.50
2019-02-20T02:16:09.155Z,12.47
2019-02-20T02:18:38.024Z,14.47
2019-02-20T02:21:06.880Z,12.67
2019-02-20T02:23:35.844Z,11.37
2019-02-20T02:26:10.653Z,13.60
2019-02-20T02:28:35.310Z,13.87
2019-02-20T02:31:04.252Z,11.47
2019-02-20T02:33:33.143Z,12.93
2019-02-20T02:36:02.025Z,13.77
2019-02-20T02:38:30.979Z,8.90
2019-02-20T02:41:00.011Z,14.90
2019-02-20T02:43:28.924Z,12.70
2019-02-20T02:45:57.741Z,16.10
2019-02-20T02:48:26.642Z,14.57
2019-02-20T02:50:55.502Z,12.30
2019-02-20T02:53:30.685Z,14.13
2019-02-20T02:55:55.149Z,11.97
2019-02-20T02:58:24.038Z,12.77
2019-02-20T03:00:54.285Z,15.57
2019-02-20T03:03:23.358Z,13.30
2019-02-20T03:05:52.203Z,12.77
2019-02-20T03:08:21.138Z,18.80
2019-02-20T03:10:50.002Z,13.67
2019-02-20T03:13:18.930Z,14.37
2019-02-20T03:15:47.899Z,15.63
2019-02-20T03:18:16.783Z,16.37
2019-02-20T03:20:45.619Z,14.97
2019-02-20T03:23:14.590Z,14.07
2019-02-20T03:25:43.444Z,15.33
2019-02-20T03:28:14.827Z,17.97
2019-02-20T03:30:43.803Z,15.77
2019-02-20T03:33:13.104Z,18.73
2019-02-20T03:35:42.113Z,15.67
2019-02-20T03:38:11.090Z,15.10
2019-02-20T03:40:40.178Z,15.93
2019-02-20T03:43:09.015Z,14.53
2019-02-20T03:45:38.008Z,14.87
2019-02-20T03:48:06.932Z,13.07
2019-02-20T03:50:35.960Z,20.73
2019-02-20T03:53:04.824Z,15.40
2019-02-20T03:55:33.723Z,14.23
2019-02-20T03:58:02.703Z,17.77
2019-02-20T04:00:31.697Z,17.33
2019-02-20T04:03:00.636Z,16.90
2019-02-20T04:05:29.688Z,15.17
2019-02-20T04:07:58.560Z,15.77
2019-02-20T04:10:27.462Z,15.80
2019-02-20T04:12:56.419Z,14.47
2019-02-20T04:15:25.340Z,16.53
2019-02-20T04:17:54.253Z,15.10
2019-02-20T04:20:23.170Z,14.60
2019-02-20T04:22:52.073Z,15.57
2019-02-20T04:25:21.123Z,21.10
2019-02-20T04:27:50.003Z,13.87
2019-02-20T04:30:18.880Z,15.87
2019-02-20T04:32:47.739Z,16.67
2019-02-20T04:35:16.771Z,17.10
2019-02-20T04:37:45.767Z,16.60
2019-02-20T04:40:14.838Z,15.23
2019-02-20T04:42:43.851Z,18.53
2019-02-20T04:45:12.753Z,15.77
2019-02-20T04:47:41.661Z,14.37
2019-02-20T04:50:10.632Z,15.37
2019-02-20T04:52:39.523Z,18.47
2019-02-20T04:55:08.493Z,16.03
2019-02-20T04:57:37.373Z,18.50
2019-02-20T05:00:07.143Z,15.30
2019-02-20T05:02:36.091Z,18.13
2019-02-20T05:05:05.178Z,17.63
2019-02-20T05:07:34.021Z,17.97
2019-02-20T05:10:02.970Z,15.40
2019-02-20T05:12:31.840Z,18.47
2019-02-20T05:15:00.778Z,19.30
2019-02-20T05:17:29.619Z,22.27
2019-02-20T05:19:58.521Z,22.17
2019-02-20T05:22:27.524Z,19.73
2019-02-20T05:24:56.446Z,18.87
2019-02-20T05:27:29.067Z,17.33
2019-02-20T05:29:57.928Z,16.57
2019-02-20T05:32:26.881Z,16.53
2019-02-20T05:34:55.738Z,21.77
2019-02-20T05:37:24.648Z,21.07
2019-02-20T05:39:53.518Z,17.70
2019-02-20T05:42:22.475Z,21.67
2019-02-20T05:44:51.314Z,20.10
2019-02-20T05:47:22.464Z,16.43
2019-02-20T05:49:51.420Z,19.20
2019-02-20T05:52:20.429Z,19.40
2019-02-20T05:54:49.310Z,16.97
2019-02-20T05:57:18.249Z,20.67
2019-02-20T05:59:47.240Z,21.83
2019-02-20T06:02:16.154Z,19.67
2019-02-20T06:04:45.012Z,24.03
2019-02-20T06:07:13.927Z,25.20
2019-02-20T06:09:42.827Z,23.50
2019-02-20T06:12:11.737Z,21.97
2019-02-20T06:14:40.654Z,20.63
2019-02-20T06:17:09.483Z,22.07
2019-02-20T06:19:38.353Z,24.57
2019-02-20T06:22:07.265Z,22.47
2019-02-20T06:24:43.932Z,20.73
2019-02-20T06:27:07.981Z,25.83
2019-02-20T06:29:37.057Z,22.30
2019-02-20T06:32:06.073Z,23.87
2019-02-20T06:34:34.920Z,21.23
2019-02-20T06:37:03.830Z,21.13
2019-02-20T06:39:32.798Z,23.80
2019-02-20T06:42:01.791Z,24.37
2019-02-20T06:44:30.855Z,20.83
2019-02-20T06:46:59.750Z,22.57
2019-02-20T06:49:28.643Z,22.20
2019-02-20T06:51:57.583Z,29.43
2019-02-20T06:54:26.599Z,23.57
2019-02-20T06:56:55.542Z,24.43
2019-02-20T06:59:24.418Z,30.20
2019-02-20T07:01:53.352Z,29.87
2019-02-20T07:04:22.244Z,32.13
2019-02-20T07:07:13.040Z,25.40
2019-02-20T07:10:03.804Z,25.70
2019-02-20T07:12:35.688Z,27.17
2019-02-20T07:15:32.652Z,24.50
2019-02-20T07:18:29.874Z,30.77
2019-02-20T07:21:23.733Z,40.67
2019-02-20T07:24:14.661Z,27.97
2019-02-20T07:27:04.815Z,34.90
2019-02-20T07:29:50.116Z,63.23
2019-02-20T07:32:19.096Z,25.10
2019-02-20T07:34:47.957Z,23.07
2019-02-20T07:37:16.834Z,24.33
2019-02-20T07:39:45.823Z,22.37
2019-02-20T07:42:14.755Z,22.83
2019-02-20T07:44:43.614Z,23.37
2019-02-20T07:47:12.772Z,29.20
2019-02-20T07:49:41.627Z,23.13
2019-02-20T07:52:10.535Z,20.87
2019-02-20T07:54:39.543Z,27.23
2019-02-20T07:57:08.433Z,23.70
2019-02-20T07:59:37.401Z,21.80
2019-02-20T08:02:06.262Z,21.60
2019-02-20T08:04:35.117Z,23.07
2019-02-20T08:07:04.095Z,23.40
2019-02-20T08:09:32.959Z,23.53
2019-02-20T08:12:01.957Z,21.80
2019-02-20T08:14:30.950Z,24.27
2019-02-20T08:16:59.839Z,23.87
2019-02-20T08:19:28.808Z,20.63
2019-02-20T08:21:57.621Z,23.03
2019-02-20T08:24:26.615Z,19.30
2019-02-20T08:26:55.475Z,22.00
2019-02-20T08:29:24.356Z,18.13
2019-02-20T08:31:53.938Z,23.43
2019-02-20T08:34:23.099Z,19.43
2019-02-20T08:36:51.952Z,19.43
2019-02-20T08:39:20.850Z,23.10
2019-02-20T08:41:49.733Z,16.77
2019-02-20T08:44:18.629Z,17.93
2019-02-20T08:46:47.471Z,19.47
2019-02-20T08:49:16.384Z,18.43
2019-02-20T08:51:45.277Z,21.43
2019-02-20T08:54:14.307Z,18.90
2019-02-20T08:56:43.314Z,34.00
2019-02-20T08:59:12.186Z,24.00
2019-02-20T09:01:41.096Z,17.10
2019-02-20T09:04:10.075Z,16.57
2019-02-20T09:06:38.907Z,16.47
2019-02-20T09:09:07.974Z,14.60
2019-02-20T09:11:36.934Z,15.87
2019-02-20T09:14:05.825Z,19.30
2019-02-20T09:16:34.724Z,15.80
2019-02-20T09:19:03.781Z,13.33
2019-02-20T09:21:32.669Z,12.33
2019-02-20T09:24:01.716Z,14.30
2019-02-20T09:26:30.629Z,11.47
2019-02-20T09:28:59.605Z,11.37
2019-02-20T09:31:28.563Z,14.40
2019-02-20T09:33:57.662Z,9.73
2019-02-20T09:36:26.655Z,13.80
2019-02-20T09:38:55.567Z,15.07
2019-02-20T09:41:24.436Z,12.77
2019-02-20T09:43:53.310Z,12.73
2019-02-20T09:46:22.151Z,8.67
2019-02-20T09:48:51.081Z,12.47
2019-02-20T09:51:20.012Z,15.40
2019-02-20T09:53:48.970Z,11.20
2019-02-20T09:56:17.871Z,8.97
2019-02-20T09:58:46.797Z,13.43
2019-02-20T10:01:15.683Z,10.33
2019-02-20T10:03:44.600Z,9.97
2019-02-20T10:06:13.484Z,13.53
2019-02-20T10:08:42.380Z,10.33
2019-02-20T10:11:11.311Z,11.07
2019-02-20T10:13:40.157Z,10.37
2019-02-20T10:16:09.099Z,10.83
2019-02-20T10:18:37.992Z,12.63
2019-02-20T10:21:06.820Z,10.73
2019-02-20T10:23:35.871Z,10.27
2019-02-20T10:26:04.843Z,10.70
2019-02-20T10:28:33.698Z,11.97
2019-02-20T10:31:02.575Z,10.80
2019-02-20T10:33:31.456Z,10.00
2019-02-20T10:36:00.386Z,7.90
2019-02-20T10:38:29.323Z,9.20
2019-02-20T10:40:58.240Z,13.37
2019-02-20T10:43:27.117Z,13.00
2019-02-20T10:45:56.054Z,9.13
2019-02-20T10:48:24.922Z,12.87
2019-02-20T10:50:53.884Z,10.03
2019-02-20T10:53:22.743Z,11.70
2019-02-20T10:55:51.719Z,9.07
2019-02-20T10:58:20.586Z,9.10
2019-02-20T11:00:49.470Z,9.50
2019-02-20T11:03:18.417Z,8.30
2019-02-20T11:05:47.404Z,9.70
2019-02-20T11:08:16.177Z,9.90
2019-02-20T11:10:45.118Z,7.43
2019-02-20T11:13:14.062Z,9.93
2019-02-20T11:15:43.038Z,9.60
2019-02-20T11:18:12.026Z,8.53
2019-02-20T11:20:48.262Z,9.33
2019-02-20T11:23:11.631Z,9.50
2019-02-20T11:25:40.567Z,6.23
2019-02-20T11:28:09.389Z,10.50
2019-02-20T11:30:38.384Z,7.53
2019-02-20T11:33:07.233Z,8.83
2019-02-20T11:35:36.134Z,8.27
2019-02-20T11:38:04.988Z,9.10
2019-02-20T11:40:34.008Z,8.17
2019-02-20T11:43:03.074Z,10.97
2019-02-20T11:45:31.969Z,8.73
2019-02-20T11:48:00.952Z,5.87
2019-02-20T11:50:29.822Z,6.57
2019-02-20T11:52:58.743Z,9.83
2019-02-20T11:55:27.599Z,6.37
2019-02-20T11:58:00.729Z,10.03
2019-02-20T12:00:27.041Z,6.13
2019-02-20T12:02:56.010Z,7.43
2019-02-20T12:05:24.868Z,6.53
2019-02-20T12:07:53.738Z,7.17
2019-02-20T12:10:22.624Z,6.57
2019-02-20T12:12:51.507Z,7.50
2019-02-20T12:15:20.684Z,8.37
2019-02-20T12:17:49.674Z,9.57
2019-02-20T12:20:18.577Z,7.40
2019-02-20T12:22:47.698Z,8.93
2019-02-20T12:25:16.640Z,6.87
2019-02-20T12:27:45.536Z,9.57
2019-02-20T12:30:14.459Z,9.07
2019-02-20T12:32:43.418Z,11.77
2019-02-20T12:35:12.414Z,7.27
2019-02-20T12:37:41.337Z,7.20
2019-02-20T12:40:10.322Z,7.40
2019-02-20T12:42:39.218Z,6.60
2019-02-20T12:45:08.197Z,8.90
2019-02-20T12:47:37.375Z,6.60
2019-02-20T12:50:06.359Z,8.63
2019-02-20T12:52:35.244Z,10.33
2019-02-20T12:55:04.338Z,9.03
2019-02-20T12:57:33.247Z,7.30
2019-02-20T13:00:02.112Z,8.07
2019-02-20T13:02:31.097Z,9.13
2019-02-20T13:04:59.960Z,9.07
2019-02-20T13:07:28.956Z,11.23
2019-02-20T13:09:57.806Z,9.00
2019-02-20T13:12:26.800Z,8.87
2019-02-20T13:14:55.766Z,11.07
2019-02-20T13:17:24.745Z,11.00
2019-02-20T13:19:53.591Z,11.17
2019-02-20T13:22:22.571Z,6.73
2019-02-20T13:24:51.469Z,12.47
2019-02-20T13:27:22.809Z,8.97
2019-02-20T13:29:50.966Z,11.03
2019-02-20T13:32:19.937Z,11.80
2019-02-20T13:34:48.858Z,8.23
2019-02-20T13:37:17.794Z,8.80
2019-02-20T13:39:46.734Z,10.40
2019-02-20T13:42:16.001Z,9.10
2019-02-20T13:44:44.932Z,8.87
2019-02-20T13:47:13.819Z,11.17
2019-02-20T13:49:42.726Z,10.27
2019-02-20T13:52:11.694Z,10.17
2019-02-20T13:54:40.600Z,9.43
2019-02-20T13:57:09.490Z,10.53
2019-02-20T13:59:38.712Z,9.93
2019-02-20T14:02:07.704Z,9.53
2019-02-20T14:04:36.573Z,8.90
2019-02-20T14:07:05.461Z,9.20
2019-02-20T14:09:34.366Z,10.17
2019-02-20T14:12:03.259Z,10.17
2019-02-20T14:14:32.149Z,8.97
2019-02-20T14:17:01.102Z,7.20
2019-02-20T14:19:29.999Z,9.40
2019-02-20T14:21:58.886Z,11.93
2019-02-20T14:24:27.799Z,10.07
2019-02-20T14:26:56.682Z,9.37
2019-02-20T14:29:25.626Z,7.97
2019-02-20T14:31:54.913Z,9.20
2019-02-20T14:34:23.813Z,9.50
2019-02-20T14:36:52.709Z,8.83
2019-02-20T14:39:22.855Z,10.17
2019-02-20T14:41:51.813Z,9.27
2019-02-20T14:44:20.826Z,9.17
2019-02-20T14:46:50.103Z,9.57
2019-02-20T14:49:19.064Z,7.30
2019-02-20T14:51:47.993Z,8.53
2019-02-20T14:54:16.937Z,10.43
2019-02-20T14:56:45.862Z,9.60
2019-02-20T14:59:14.732Z,8.83
2019-02-20T15:01:43.664Z,10.17
2019-02-20T15:04:12.847Z,8.13
2019-02-20T15:06:41.856Z,10.03
2019-02-20T15:09:10.743Z,8.60
2019-02-20T15:11:39.582Z,9.03
2019-02-20T15:14:08.630Z,10.50
2019-02-20T15:16:37.708Z,9.63
2019-02-20T15:19:07.039Z,12.17
2019-02-20T15:21:35.932Z,12.57
2019-02-20T15:24:04.978Z,11.20
2019-02-20T15:26:34.003Z,8.57
2019-02-20T15:29:02.886Z,11.57
2019-02-20T15:31:33.951Z,14.57
2019-02-20T15:34:02.461Z,14.83
2019-02-20T15:36:31.387Z,10.53
2019-02-20T15:39:00.349Z,9.47
2019-02-20T15:41:29.267Z,10.57
2019-02-20T15:43:58.251Z,9.63
2019-02-20T15:46:27.121Z,9.20
2019-02-20T15:48:55.957Z,8.30
2019-02-20T15:51:25.263Z,10.00
2019-02-20T15:53:54.114Z,10.90
2019-02-20T15:56:23.033Z,11.77
2019-02-20T15:58:52.021Z,10.50
2019-02-20T16:01:20.895Z,9.50
2019-02-20T16:03:49.751Z,9.10
2019-02-20T16:06:18.724Z,9.13
2019-02-20T16:08:47.680Z,10.30
2019-02-20T16:11:16.594Z,9.90
2019-02-20T16:13:45.535Z,10.80
2019-02-20T16:16:14.739Z,10.07
2019-02-20T16:18:43.742Z,10.67
2019-02-20T16:21:12.755Z,11.77
2019-02-20T16:23:41.966Z,11.07
2019-02-20T16:26:11.078Z,11.47
2019-02-20T16:28:39.939Z,11.90
2019-02-20T16:31:08.876Z,10.83
2019-02-20T16:33:37.813Z,15.63
2019-02-20T16:36:06.784Z,14.50
2019-02-20T16:38:35.653Z,16.63
2019-02-20T16:41:04.820Z,11.10
2019-02-20T16:43:33.885Z,13.40
2019-02-20T16:46:02.817Z,14.30
2019-02-20T16:48:31.832Z,12.50
2019-02-20T16:51:00.766Z,14.70
2019-02-20T16:53:29.687Z,13.47
2019-02-20T16:55:59.013Z,12.17
2019-02-20T16:58:27.899Z,18.83
2019-02-20T17:00:57.934Z,17.93
2019-02-20T17:03:26.818Z,17.77
2019-02-20T17:05:55.830Z,14.40
2019-02-20T17:08:24.713Z,15.43
2019-02-20T17:10:53.983Z,15.70
2019-02-20T17:13:22.836Z,13.60
2019-02-20T17:15:51.703Z,17.53
2019-02-20T17:18:20.668Z,12.60
2019-02-20T17:20:49.557Z,16.07
2019-02-20T17:23:18.501Z,19.10
2019-02-20T17:25:47.422Z,15.37
2019-02-20T17:28:16.476Z,17.90
2019-02-20T17:30:45.392Z,15.27
2019-02-20T17:33:14.294Z,20.63
2019-02-20T17:35:43.150Z,17.37
2019-02-20T17:38:12.778Z,14.20
2019-02-20T17:40:41.677Z,20.90
2019-02-20T17:43:10.896Z,18.80
2019-02-20T17:45:39.712Z,20.10
2019-02-20T17:48:08.590Z,18.87
2019-02-20T17:50:37.568Z,22.87
2019-02-20T17:53:06.559Z,17.50
2019-02-20T17:55:35.459Z,18.97
2019-02-20T17:58:04.745Z,21.37
2019-02-20T18:00:33.635Z,19.17
2019-02-20T18:03:02.537Z,20.13
2019-02-20T18:05:31.446Z,20.30
2019-02-20T18:08:00.407Z,18.47
2019-02-20T18:10:29.196Z,13.80
2019-02-20T18:12:58.196Z,20.73
2019-02-20T18:15:27.126Z,37.53
2019-02-20T18:17:56.162Z,41.67
2019-02-20T18:20:25.204Z,39.03
2019-02-20T18:22:54.483Z,29.83
2019-02-20T18:25:23.402Z,27.57
2019-02-20T18:27:52.338Z,26.30
2019-02-20T18:30:21.265Z,18.00
2019-02-20T18:32:50.314Z,16.90
2019-02-20T18:35:19.171Z,18.43
2019-02-20T18:37:48.174Z,17.07
2019-02-20T18:40:17.121Z,15.70
2019-02-20T18:42:46.046Z,14.40
2019-02-20T18:45:15.392Z,19.20
2019-02-20T18:47:44.455Z,14.33
2019-02-20T18:50:13.674Z,19.30
2019-02-20T18:52:42.667Z,23.73
2019-02-20T18:55:11.633Z,32.07
2019-02-20T18:57:40.593Z,40.33
2019-02-20T19:00:11.561Z,36.73
2019-02-20T19:02:40.429Z,31.23
2019-02-20T19:05:09.975Z,33.13
2019-02-20T19:07:38.968Z,21.20
2019-02-20T19:10:09.948Z,24.17
2019-02-20T19:13:03.963Z,21.33
2019-02-20T19:15:53.646Z,25.93
2019-02-20T19:18:33.129Z,20.77
2019-02-20T19:21:19.728Z,20.40
2019-02-20T19:24:19.761Z,20.23
2019-02-20T19:26:52.166Z,17.60
2019-02-20T19:29:38.689Z,19.43
2019-02-20T19:32:26.643Z,20.80
2019-02-20T19:35:14.609Z,19.20
2019-02-20T19:38:09.529Z,18.17
2019-02-20T19:40:54.790Z,19.13
2019-02-20T19:43:41.634Z,17.37
2019-02-20T19:46:41.810Z,19.30
2019-02-20T19:49:41.983Z,20.50
2019-02-20T19:52:35.774Z,20.00
2019-02-20T19:55:10.428Z,20.03
2019-02-20T19:57:58.388Z,17.70
2019-02-20T20:00:32.699Z,21.03
2019-02-20T20:03:11.256Z,16.83
2019-02-20T20:06:01.914Z,17.03
2019-02-20T20:08:36.589Z,23.50
2019-02-20T20:11:11.292Z,24.97
2019-02-20T20:13:50.062Z,24.40
2019-02-20T20:16:50.976Z,24.57
2019-02-20T20:19:39.564Z,24.53
2019-02-20T20:22:31.382Z,34.43
2019-02-20T20:25:24.647Z,35.97
2019-02-20T20:27:57.530Z,27.03
2019-02-20T20:31:01.883Z,32.13
2019-02-20T20:33:49.038Z,25.80
2019-02-20T20:36:37.003Z,22.90
2019-02-20T20:39:43.930Z,24.47
2019-02-20T20:42:34.890Z,20.63
2019-02-20T20:45:17.986Z,23.60
2019-02-20T20:47:53.892Z,18.97
2019-02-20T20:50:30.942Z,19.80
2019-02-20T20:53:31.056Z,21.47
2019-02-20T20:56:37.233Z,21.63
2019-02-20T20:59:21.365Z,24.10
2019-02-20T21:01:55.525Z,21.57
2019-02-20T21:04:45.939Z,21.07
2019-02-20T21:07:35.665Z,25.33
2019-02-20T21:10:16.281Z,23.63
2019-02-20T21:13:09.129Z,22.73
2019-02-20T21:16:06.490Z,23.03
2019-02-20T21:19:00.286Z,21.33
2019-02-20T21:21:47.097Z,23.33
2019-02-20T21:24:50.221Z,27.40
2019-02-20T21:27:44.137Z,28.67
2019-02-20T21:30:22.462Z,28.93
2019-02-20T21:33:13.273Z,28.27
2019-02-20T21:35:59.979Z,26.80
2019-02-20T21:38:49.216Z,25.53
2019-02-20T21:41:21.717Z,27.50
2019-02-20T21:44:10.608Z,25.20
2019-02-20T21:46:57.880Z,23.77
2019-02-20T21:49:34.225Z,27.50
2019-02-20T21:52:21.063Z,26.20
2019-02-20T21:55:02.857Z,24.90
2019-02-20T21:57:39.324Z,26.00
2019-02-20T22:00:33.280Z,23.97
2019-02-20T22:03:24.091Z,24.37
2019-02-20T22:05:59.432Z,25.73
2019-02-20T22:09:05.818Z,26.63
2019-02-20T22:11:44.351Z,27.20
2019-02-20T22:14:34.818Z,28.10
2019-02-20T22:17:16.616Z,22.73
2019-02-20T22:20:07.483Z,23.47
2019-02-20T22:23:10.730Z,29.13
2019-02-20T22:25:52.221Z,27.37
2019-02-20T22:28:38.132Z,26.80
2019-02-20T22:31:19.060Z,28.67
2019-02-20T22:34:16.330Z,30.97
2019-02-20T22:37:04.328Z,29.57
2019-02-20T22:39:37.500Z,26.67
2019-02-20T22:42:24.550Z,23.60
2019-02-20T22:45:03.454Z,29.73
2019-02-20T22:47:39.744Z,24.77
2019-02-20T22:50:34.000Z,31.83
2019-02-20T22:53:06.366Z,27.60
2019-02-20T22:56:09.735Z,24.70
2019-02-20T22:58:51.005Z,20.90
2019-02-20T23:01:39.106Z,20.67
2019-02-20T23:04:36.311Z,23.43
2019-02-20T23:07:14.564Z,22.33
2019-02-20T23:09:49.701Z,24.10
2019-02-20T23:12:44.102Z,19.77
2019-02-20T23:15:13.068Z,20.70
2019-02-20T23:17:41.999Z,23.23
2019-02-20T23:20:10.876Z,21.37
2019-02-20T23:22:39.950Z,23.80
2019-02-20T23:25:08.814Z,25.00
2019-02-20T23:27:40.684Z,21.27
2019-02-20T23:30:12.856Z,24.20
2019-02-20T23:32:43.134Z,22.33
2019-02-20T23:35:11.372Z,20.30
2019-02-20T23:37:41.493Z,19.90
2019-02-20T23:40:11.894Z,20.00
2019-02-20T23:42:40.810Z,19.23
2019-02-20T23:45:10.203Z,19.17
2019-02-20T23:47:39.042Z,21.27
2019-02-20T23:50:08.068Z,21.13
2019-02-20T23:52:37.042Z,21.10
2019-02-20T23:55:06.180Z,19.63
2019-02-20T23:57:35.163Z,22.50
